メインページ
METAR-TAF:

METAR-TAF

空港 :

ブリスベン空港

ブリスベン, オーストラリア

緯度: 27-23S, 経度: 153-06E, 海抜: 4m

現時点の気象観測

当レポートは27分前の21:00(UTC)に作成
北西の風 7kt
気温 21°C
湿度 78%
気圧 1014 hPa
視程10km以上
高度1200ftの雲はほとんどない
高度5700ftの雲は散在している
高度15000ftの千切れ雲あり

METAR: YBBN 202100Z 31007KT 9999 FEW012 SCT057 BKN150 21/17 Q1014

時間: 07:27 (21:27 UTC)

予報

当レポートは2時間1分前の19:26(UTC)に作成
予報は20日の 20時(UTC)から 21日の 24時(UTC)まで有効
変向風 4kt
視程10km以上
高度2000ftの雲は散在している
高度4000ftの雲は散在している
高度10000ftの千切れ雲あり
弱いにわか雨
21日の 0000時(UTC)から
北/北東の風 10kt
視程10km以上
高度4000ftの雲は散在している
高度10000ftの雲は散在している
21日の 0900時(UTC)から
北西の風 5kt
視程10km以上
高度2500ftの雲は散在している
高度4000ftの千切れ雲あり
弱いにわか雨
21日の 1600時(UTC)から
南/南西の風 6kt
視程10km以上
高度1500ftの雲は散在している
高度2000ftの千切れ雲あり
高度4000ftの千切れ雲あり
弱いにわか雨
21日の 14時(UTC)から 21日の 18時(UTC)まで一時的に
視程: 4000m
高度1500ftの千切れ雲あり
にわか雨
21日の 18時(UTC)から 21日の 22時(UTC)まで一時的に
視程10km以上
高度1200ftの千切れ雲あり
確率 30% :
21日の 06時(UTC)から 21日の 14時(UTC)まで一時的に
変向風 25kt、最大45ktの突風を伴う
視程: 2000m
高度1500ftの千切れ雲あり
高度4000ftの雲は散在している, 積乱雲.
激しい雷雨, 雨

TAF: YBBN 201926Z 2020/2124 VRB04KT 9999 -SHRA SCT020 SCT040 BKN100 FM210000 02010KT 9999 SCT040 SCT100 FM210900 32005KT 9999 -SHRA SCT025 BKN040 FM211600 21006KT 9999 -SHRA SCT015 BKN020 BKN040 TEMPO 2114/2118 4000 SHRA BKN015 TEMPO 2118/2122 9999 NSW BKN012 PROB30 TEMPO 2106/2114 VRB25G45KT 2000 TSRA BKN015 SCT040CB

4,000以上の空港の気象観測と天気予報(METAR報とTAF報)

利用可能な観測所は地図上に黄色い丸と赤い丸で示す。

丸の上にカーソルを重ねると観測所名を参照できる。

次にクリックすると気象観測と天気予報を参照できる。

マップの切り替え:黒色「×」印の緑ボタンをクリックして拡大、「-」印の緑ボタンをクリックして縮小、緑色の三角印をクリックして隣りの地図に切り替え


METAR-TAF: